createdAt,value
2019-02-27T00:03:28.891Z,69.43
2019-02-27T00:08:32.361Z,69.35
2019-02-27T00:13:37.998Z,74.32
2019-02-27T00:18:43.469Z,71.20
2019-02-27T00:23:48.949Z,67.43
2019-02-27T00:28:56.146Z,63.70
2019-02-27T00:34:01.563Z,67.07
2019-02-27T00:39:08.507Z,65.47
2019-02-27T00:44:13.922Z,64.00
2019-02-27T00:49:19.448Z,58.80
2019-02-27T00:54:24.904Z,59.43
2019-02-27T00:59:32.877Z,64.97
2019-02-27T01:04:37.958Z,71.55
2019-02-27T01:09:43.420Z,65.83
2019-02-27T01:14:48.950Z,66.03
2019-02-27T01:19:54.423Z,61.73
2019-02-27T01:25:00.017Z,69.17
2019-02-27T01:30:06.810Z,93.27
2019-02-27T01:35:17.443Z,84.53
2019-02-27T01:40:20.265Z,85.23
2019-02-27T01:45:25.787Z,84.07
2019-02-27T01:50:36.064Z,88.47
2019-02-27T01:55:41.647Z,82.35
2019-02-27T02:00:47.133Z,89.85
2019-02-27T02:05:52.552Z,99.13
2019-02-27T02:10:58.872Z,100.10
2019-02-27T02:16:17.081Z,111.03
2019-02-27T02:21:42.712Z,104.53
2019-02-27T02:27:02.893Z,127.05
2019-02-27T02:32:23.643Z,114.43
2019-02-27T02:37:46.310Z,127.90
2019-02-27T02:43:06.961Z,135.83
2019-02-27T02:48:27.872Z,140.83
2019-02-27T02:53:48.921Z,344.83
2019-02-27T02:59:24.796Z,664.90
2019-02-27T03:04:48.204Z,710.97
2019-02-27T03:10:08.172Z,629.17
2019-02-27T03:15:34.364Z,485.13
2019-02-27T03:20:53.354Z,326.60
2019-02-27T03:26:16.920Z,209.77
2019-02-27T03:31:33.240Z,216.93
2019-02-27T03:42:07.353Z,185.67
2019-02-27T03:47:30.303Z,189.80
2019-02-27T03:52:57.533Z,195.80
2019-02-27T03:58:14.877Z,204.83
2019-02-27T04:03:36.208Z,234.43
2019-02-27T04:08:56.738Z,439.35
2019-02-27T04:14:05.058Z,466.73
2019-02-27T04:19:09.359Z,715.73
2019-02-27T04:24:14.804Z,723.93
2019-02-27T04:29:20.204Z,694.50
2019-02-27T04:34:25.666Z,614.00
2019-02-27T04:39:31.122Z,646.87
2019-02-27T04:44:39.049Z,652.65
2019-02-27T04:49:43.742Z,735.83
2019-02-27T04:54:49.252Z,697.92
2019-02-27T04:59:54.667Z,631.17
2019-02-27T05:05:00.038Z,696.73
2019-02-27T05:10:07.259Z,672.93
2019-02-27T05:15:12.825Z,589.57
2019-02-27T05:20:18.229Z,612.63
2019-02-27T05:25:23.657Z,725.40
2019-02-27T05:30:29.107Z,699.00
2019-02-27T05:35:34.512Z,715.17
2019-02-27T05:40:39.867Z,561.67
2019-02-27T05:45:45.293Z,456.65
2019-02-27T05:50:50.751Z,332.87
2019-02-27T05:55:56.221Z,574.93
2019-02-27T06:01:02.046Z,693.10
2019-02-27T06:06:11.543Z,693.10
2019-02-27T06:11:15.917Z,540.27
2019-02-27T06:16:21.404Z,622.80
2019-02-27T06:21:26.770Z,713.73
2019-02-27T06:26:32.933Z,638.47
2019-02-27T06:31:39.496Z,712.15
2019-02-27T06:36:45.157Z,609.47
2019-02-27T06:41:50.547Z,535.67
2019-02-27T06:46:56.011Z,671.90
2019-02-27T06:52:01.417Z,603.83
2019-02-27T06:57:07.819Z,631.63
2019-02-27T07:02:13.882Z,660.90
2019-02-27T07:07:19.314Z,337.67
2019-02-27T07:12:24.897Z,307.43
2019-02-27T07:17:31.728Z,247.63
2019-02-27T07:22:37.646Z,242.23
2019-02-27T07:27:44.401Z,228.20
2019-02-27T07:32:49.787Z,253.20
2019-02-27T07:37:55.314Z,315.40
2019-02-27T07:43:03.265Z,215.93
2019-02-27T07:48:09.681Z,210.30
2019-02-27T07:53:17.429Z,374.83
2019-02-27T07:58:22.309Z,324.88
2019-02-27T08:03:27.839Z,246.73
2019-02-27T08:08:33.594Z,265.17
2019-02-27T08:13:38.998Z,346.50
2019-02-27T08:18:44.457Z,448.93
2019-02-27T08:23:49.792Z,513.43
2019-02-27T08:28:55.366Z,519.10
2019-02-27T08:34:00.837Z,554.97
2019-02-27T08:39:07.754Z,423.87
2019-02-27T08:44:13.323Z,346.87
2019-02-27T08:49:18.870Z,517.03
2019-02-27T08:54:25.967Z,250.63
2019-02-27T08:59:32.274Z,208.60
2019-02-27T09:04:37.766Z,208.10
2019-02-27T09:09:43.177Z,190.90
2019-02-27T09:14:48.643Z,172.50
2019-02-27T09:19:54.121Z,163.50
2019-02-27T09:24:59.682Z,147.40
2019-02-27T09:30:05.919Z,145.17
2019-02-27T09:35:11.951Z,155.70
2019-02-27T09:40:18.753Z,121.70
2019-02-27T09:45:27.720Z,128.97
2019-02-27T09:50:35.273Z,124.40
2019-02-27T09:55:41.114Z,124.35
2019-02-27T10:00:51.992Z,129.90
2019-02-27T10:05:57.475Z,114.40
2019-02-27T10:11:03.093Z,115.60
2019-02-27T10:16:08.919Z,80.87
2019-02-27T10:21:14.450Z,71.57
2019-02-27T10:26:22.089Z,49.80
2019-02-27T10:31:27.059Z,42.97
2019-02-27T10:36:32.710Z,29.57
2019-02-27T10:41:38.120Z,18.85
2019-02-27T10:46:43.585Z,22.30
2019-02-27T10:51:48.975Z,21.07
2019-02-27T10:56:56.356Z,14.93
2019-02-27T11:02:01.605Z,16.93
2019-02-27T11:07:07.136Z,16.93
2019-02-27T11:12:13.772Z,18.40
2019-02-27T11:17:19.329Z,23.33
2019-02-27T11:22:24.740Z,25.23
2019-02-27T11:27:30.250Z,34.60
2019-02-27T11:32:35.699Z,35.10
2019-02-27T11:37:41.255Z,22.45
2019-02-27T11:42:46.595Z,36.03
2019-02-27T11:47:52.299Z,26.17
2019-02-27T11:53:01.768Z,32.27
2019-02-27T11:58:05.609Z,28.40
2019-02-27T12:03:11.947Z,33.77
2019-02-27T12:08:17.515Z,34.60
2019-02-27T12:13:23.125Z,45.80
2019-02-27T12:18:28.614Z,38.30
2019-02-27T12:23:34.090Z,40.30
2019-02-27T12:28:39.440Z,35.87
2019-02-27T12:33:47.330Z,30.07
2019-02-27T12:38:52.862Z,36.13
2019-02-27T12:44:01.505Z,41.07
2019-02-27T12:49:07.125Z,33.47
2019-02-27T12:54:12.660Z,33.50
2019-02-27T12:59:18.052Z,34.40
2019-02-27T13:04:23.469Z,32.53
2019-02-27T13:09:28.933Z,34.80
2019-02-27T13:14:34.359Z,34.63
2019-02-27T13:19:39.865Z,37.67
2019-02-27T13:24:47.091Z,37.25
2019-02-27T13:29:56.829Z,43.60
2019-02-27T13:34:59.633Z,42.37
2019-02-27T13:40:07.734Z,43.33
2019-02-27T13:45:15.818Z,38.07
2019-02-27T13:50:23.444Z,33.83
2019-02-27T13:55:28.957Z,32.13
2019-02-27T14:00:34.739Z,33.77
2019-02-27T14:05:40.211Z,31.45
2019-02-27T14:10:47.109Z,41.95
2019-02-27T14:15:52.634Z,36.10
2019-02-27T14:20:59.017Z,34.43
2019-02-27T14:26:06.335Z,32.23
2019-02-27T14:31:13.218Z,33.67
2019-02-27T14:36:18.925Z,36.90
2019-02-27T14:41:24.515Z,30.33
2019-02-27T14:46:30.636Z,30.80
2019-02-27T14:51:36.345Z,30.80
2019-02-27T14:56:42.707Z,29.73
2019-02-27T15:01:49.757Z,36.28
2019-02-27T15:06:55.199Z,30.50
2019-02-27T15:12:00.719Z,31.50
2019-02-27T15:17:06.321Z,29.27
2019-02-27T15:22:13.417Z,28.27
2019-02-27T15:27:22.388Z,27.67
2019-02-27T15:32:29.452Z,27.67
2019-02-27T15:37:37.441Z,25.90
2019-02-27T15:42:43.499Z,30.20
2019-02-27T15:47:48.937Z,29.32
2019-02-27T15:52:54.574Z,23.87
2019-02-27T15:58:00.356Z,26.53
2019-02-27T16:03:10.697Z,24.23
2019-02-27T16:08:15.285Z,26.13
2019-02-27T16:13:20.417Z,23.00
2019-02-27T16:18:29.156Z,28.53
2019-02-27T16:23:37.449Z,27.33
2019-02-27T16:28:42.216Z,30.57
2019-02-27T16:33:47.734Z,30.63
2019-02-27T16:38:53.264Z,29.17
2019-02-27T16:43:58.842Z,33.03
2019-02-27T16:49:09.835Z,29.80
2019-02-27T16:54:11.964Z,30.50
2019-02-27T16:59:17.578Z,30.03
2019-02-27T17:04:23.210Z,29.87
2019-02-27T17:09:28.878Z,28.17
2019-02-27T17:14:34.437Z,26.60
2019-02-27T17:19:40.878Z,27.77
2019-02-27T17:24:46.718Z,27.50
2019-02-27T17:29:52.217Z,26.67
2019-02-27T17:34:59.305Z,28.83
2019-02-27T17:40:05.217Z,28.50
2019-02-27T17:45:14.731Z,30.20
2019-02-27T17:50:20.404Z,28.60
2019-02-27T17:55:25.898Z,29.40
2019-02-27T18:00:38.559Z,27.53
2019-02-27T18:05:43.981Z,31.42
2019-02-27T18:10:49.637Z,30.35
2019-02-27T18:15:55.289Z,28.53
2019-02-27T18:21:01.390Z,37.23
2019-02-27T18:26:07.018Z,38.90
2019-02-27T18:31:12.578Z,35.03
2019-02-27T18:36:18.117Z,41.97
2019-02-27T18:41:23.737Z,43.90
2019-02-27T18:46:29.421Z,43.13
2019-02-27T18:51:34.957Z,54.80
2019-02-27T18:56:40.519Z,65.77
2019-02-27T19:01:48.559Z,64.33
2019-02-27T19:06:54.196Z,56.90
2019-02-27T19:11:59.797Z,63.37
2019-02-27T19:17:05.765Z,70.23
2019-02-27T19:22:11.480Z,67.73
2019-02-27T19:27:18.240Z,75.10
2019-02-27T19:32:24.797Z,70.57
2019-02-27T19:37:30.557Z,86.87
2019-02-27T19:42:36.158Z,100.77
2019-02-27T19:47:41.617Z,96.37
2019-02-27T19:52:47.548Z,110.83
2019-02-27T19:57:53.214Z,115.30
2019-02-27T20:03:01.117Z,112.37
2019-02-27T20:08:09.849Z,130.78
2019-02-27T20:13:13.817Z,150.33
2019-02-27T20:18:19.477Z,152.23
2019-02-27T20:23:25.901Z,156.43
2019-02-27T20:28:35.057Z,109.73
2019-02-27T20:33:41.011Z,112.45
2019-02-27T20:38:47.541Z,114.95
2019-02-27T20:43:53.997Z,116.23
2019-02-27T20:48:59.538Z,113.20
2019-02-27T20:54:04.993Z,126.70
2019-02-27T20:59:10.477Z,138.13
2019-02-27T21:04:16.197Z,164.10
2019-02-27T21:09:22.277Z,165.97
2019-02-27T21:14:27.957Z,73.50
2019-02-27T21:19:33.866Z,63.67
2019-02-27T21:24:41.374Z,41.50
2019-02-27T21:29:46.918Z,52.17
2019-02-27T21:34:54.955Z,39.10
2019-02-27T21:40:02.291Z,65.07
2019-02-27T21:45:08.918Z,53.03
2019-02-27T21:50:17.213Z,54.93
2019-02-27T21:55:23.010Z,37.20
2019-02-27T22:00:30.777Z,50.13
2019-02-27T22:05:42.802Z,53.87
2019-02-27T22:10:43.679Z,66.72
2019-02-27T22:15:49.129Z,91.00
2019-02-27T22:20:59.493Z,89.70
2019-02-27T22:26:06.057Z,90.97
2019-02-27T22:31:14.610Z,64.67
2019-02-27T22:36:20.237Z,58.43
2019-02-27T22:41:25.740Z,51.63
2019-02-27T22:46:31.351Z,60.53
2019-02-27T22:51:37.049Z,50.83
2019-02-27T22:56:42.573Z,52.88
2019-02-27T23:01:51.516Z,49.47
2019-02-27T23:06:56.971Z,39.07
2019-02-27T23:12:02.958Z,52.07
2019-02-27T23:17:08.697Z,49.83
2019-02-27T23:22:14.329Z,45.83
2019-02-27T23:27:19.918Z,41.60
2019-02-27T23:32:28.405Z,38.90
2019-02-27T23:37:33.617Z,39.60
2019-02-27T23:42:38.952Z,41.03
2019-02-27T23:47:44.541Z,42.73
2019-02-27T23:52:53.208Z,35.80
2019-02-27T23:57:57.825Z,34.70
